Heath, Ohio
Current Conditions -  °F | °C
As of 4:54 PM on Friday 28 Nov 2014 (Local Time) from KVTA Reporting Station
Overcast Overcast  
Wind Chill: 24°   Ceiling: 10000
Heat Index: 31°   Visibility: 10mi
Dew Point: 17°   Wind: 7mph
Humidity: 57%   Direction: 180°S
Pressure: 30.23"   Gusts: NA
Location:  40.04°N, 82.43°W
Report Text: KVTA 282154Z AUTO 18006KT 10SM SCT050 OVC100 M01/M08 A3023 RMK AO2 SLP248 T10061083
Loading
Personal Weather Stations






























Interactive Weather Map New forecast layout! Learn more

10-Day Weather Forecast

Advertisements
Track Severe Weather on mobile